Show Low, AZ

9:06 PM MST on March 27, 2017 (GMT -0700)
Show Low Municipal

Weather History for KSOW - June, 2013

Change the Weather History Date:

Monday, June 17, 2013

  Actual Average Record
Temperature  
Mean Temperature 68 °F -  
Max Temperature 84 °F 80 °F 91 °F (1989)
Min Temperature 53 °F 62 °F 36 °F (1970)
Cooling Degree Days 4    
Growing Degree Days 18 (Base 50)    
Moisture  
Dew Point 24 °F    
Average Humidity 21    
Maximum Humidity 44    
Minimum Humidity 8    
Precipitation  
Precipitation 0.00 in - - ()
Sea Level Pressure  
Sea Level Pressure 30.21 in    
Wind  
Wind Speed 6 mph (SSW)    
Max Wind Speed 18 mph    
Max Gust Speed 26 mph    
Visibility 10 miles    
Events      
Averages and records for this station are not official NWS values.
T = Trace of Precipitation, MM = Missing Value Source: NWS Daily Summary

Daily Weather History Graph

Daily Weather History Graph

Search for Another Location

Airport or City:

Trip Planner

Search our weather history database for the weather conditions in past years. The results will help you decide how hot, cold, wet, or windy it might be!

Date:

Astronomy

Jun. 17, 2013 Rise Set
Actual Time 5:07 AM MST 7:34 PM MST
Civil Twilight 4:38 AM MST 8:03 PM MST
Nautical Twilight 4:02 AM MST 8:39 PM MST
Astronomical Twilight 3:22 AM MST 9:19 PM MST
Moon 1:29 PM MST (6/17) 12:31 AM MST (6/17)
Length of Visible Light 15h 25m
Length of Day
14h 26m
First Quarter, 61% of the Moon is Illuminated
Jun 17
First Quarter
Jun 23
Full
Jun 29
Last Quarter
Jul 8
New
Jul 15
First Quarter

Hourly Weather History & Observations

Time (MST) Temp. Dew Point Humidity Pressure Visibility Wind Dir Wind Speed Gust Speed Precip Events Conditions
12:15 AM 59.0 °F 32.0 °F 36% 30.24 in 10.0 mi South 3.5 mph - N/A   Clear
12:35 AM 59.0 °F 32.0 °F 36% 30.24 in 10.0 mi Calm Calm - N/A   Clear
12:55 AM 59.0 °F 32.0 °F 36% 30.24 in 10.0 mi SSW 3.5 mph - N/A   Clear
1:15 AM 57.2 °F 32.0 °F 38% 30.23 in 10.0 mi SSW 4.6 mph - N/A   Clear
1:35 AM 55.4 °F 32.0 °F 41% 30.23 in 10.0 mi South 6.9 mph - N/A   Clear
1:55 AM 55.4 °F 32.0 °F 41% 30.23 in 10.0 mi South 4.6 mph - N/A   Clear
2:15 AM 55.4 °F 32.0 °F 41% 30.23 in 10.0 mi South 5.8 mph - N/A   Clear
2:55 AM 55.4 °F 32.0 °F 41% 30.24 in 10.0 mi South 6.9 mph - N/A   Clear
3:15 AM 55.4 °F 32.0 °F 41% 30.24 in 10.0 mi South 6.9 mph - N/A   Clear
3:35 AM 55.4 °F 32.0 °F 41% 30.24 in 10.0 mi South 8.1 mph - N/A   Clear
3:55 AM 55.4 °F 32.0 °F 41% 30.24 in 10.0 mi South 3.5 mph - N/A   Clear
4:15 AM 53.6 °F 32.0 °F 44% 30.24 in 10.0 mi South 6.9 mph - N/A   Clear
4:35 AM 53.6 °F 32.0 °F 44% 30.24 in 10.0 mi South 4.6 mph - N/A   Clear
4:55 AM 53.6 °F 30.2 °F 41% 30.24 in 10.0 mi South 3.5 mph - N/A   Clear
5:15 AM 53.6 °F 30.2 °F 41% 30.24 in 10.0 mi South 4.6 mph - N/A   Clear
5:35 AM 53.6 °F 28.4 °F 38% 30.25 in 9.0 mi Calm Calm - N/A   Clear
5:55 AM 53.6 °F 28.4 °F 38% 30.25 in 8.0 mi Calm Calm - N/A   Clear
6:15 AM 59.0 °F 32.0 °F 36% 30.25 in 10.0 mi Calm Calm - N/A   Clear
6:35 AM 64.4 °F 32.0 °F 30% 30.26 in 10.0 mi Calm Calm - N/A   Clear
6:55 AM 68.0 °F 30.2 °F 24% 30.26 in 10.0 mi South 4.6 mph - N/A   Clear
7:15 AM 71.6 °F 28.4 °F 20% 30.26 in 10.0 mi South 5.8 mph - N/A   Clear
7:35 AM 71.6 °F 28.4 °F 20% 30.26 in 10.0 mi Calm Calm - N/A   Clear
7:55 AM 73.4 °F 26.6 °F 18% 30.26 in 10.0 mi Calm Calm - N/A   Clear
8:15 AM 73.4 °F 26.6 °F 18% 30.26 in 10.0 mi Calm Calm - N/A   Clear
8:35 AM 75.2 °F 26.6 °F 17% 30.26 in 10.0 mi Calm Calm - N/A   Clear
8:55 AM 77.0 °F 26.6 °F 16% 30.26 in 10.0 mi Calm Calm - N/A   Clear
9:15 AM 77.0 °F 26.6 °F 16% 30.25 in 10.0 mi WSW 8.1 mph - N/A   Clear
9:35 AM 77.0 °F 26.6 °F 16% 30.25 in 10.0 mi South 11.5 mph 17.3 mph N/A   Clear
9:55 AM 78.8 °F 26.6 °F 15% 30.25 in 10.0 mi WSW 11.5 mph - N/A   Clear
10:15 AM 80.6 °F 24.8 °F 13% 30.25 in 10.0 mi WSW 11.5 mph 21.9 mph N/A   Clear
10:35 AM 80.6 °F 24.8 °F 13% 30.24 in 10.0 mi SW 10.4 mph 17.3 mph N/A   Clear
10:55 AM 80.6 °F 24.8 °F 13% 30.24 in 10.0 mi SW 6.9 mph 18.4 mph N/A   Clear
11:15 AM 82.4 °F 24.8 °F 12% 30.24 in 10.0 mi SW 9.2 mph 23.0 mph N/A   Clear
11:35 AM 82.4 °F 23.0 °F 11% 30.24 in 10.0 mi WSW 11.5 mph 26.5 mph N/A   Clear
11:55 AM 82.4 °F 24.8 °F 12% 30.23 in 10.0 mi WSW 6.9 mph 20.7 mph N/A   Clear
12:15 PM 82.4 °F 23.0 °F 11% 30.23 in 10.0 mi SSW 13.8 mph 21.9 mph N/A   Clear
12:35 PM 82.4 °F 23.0 °F 11% 30.22 in 10.0 mi South 12.7 mph 18.4 mph N/A   Clear
12:55 PM 82.4 °F 23.0 °F 11% 30.22 in 10.0 mi SSW 8.1 mph 16.1 mph N/A   Clear
1:15 PM 84.2 °F 23.0 °F 11% 30.21 in 10.0 mi SW 12.7 mph 25.3 mph N/A   Clear
1:35 PM 82.4 °F 23.0 °F 11% 30.20 in 10.0 mi West 16.1 mph 21.9 mph N/A   Clear
1:55 PM 84.2 °F 19.4 °F 9% 30.20 in 10.0 mi WSW 10.4 mph 25.3 mph N/A   Clear
2:15 PM 84.2 °F 17.6 °F 8% 30.19 in 10.0 mi WSW 18.4 mph 23.0 mph N/A   Clear
2:35 PM 84.2 °F 17.6 °F 8% 30.19 in 10.0 mi West 13.8 mph 19.6 mph N/A   Clear
2:55 PM 84.2 °F 19.4 °F 9% 30.18 in 10.0 mi WSW 13.8 mph 21.9 mph N/A   Clear
3:15 PM 84.2 °F 19.4 °F 9% 30.18 in 10.0 mi WSW 16.1 mph 21.9 mph N/A   Clear
3:35 PM 84.2 °F 19.4 °F 9% 30.17 in 10.0 mi SW 9.2 mph - N/A   Clear
3:55 PM 84.2 °F 19.4 °F 9% 30.16 in 10.0 mi WSW 12.7 mph 19.6 mph N/A   Clear
4:15 PM 84.2 °F 17.6 °F 8% 30.16 in 10.0 mi SW 10.4 mph 19.6 mph N/A   Clear
4:35 PM 84.2 °F 17.6 °F 8% 30.16 in 10.0 mi WSW 12.7 mph 23.0 mph N/A   Clear
4:55 PM 82.4 °F 17.6 °F 9% 30.16 in 10.0 mi SW 13.8 mph 20.7 mph N/A   Clear
5:15 PM 82.4 °F 17.6 °F 9% 30.15 in 10.0 mi West 13.8 mph 18.4 mph N/A   Clear
5:35 PM 82.4 °F 17.6 °F 9% 30.15 in 10.0 mi WSW 15.0 mph 20.7 mph N/A   Clear
5:55 PM 80.6 °F 17.6 °F 10% 30.16 in 10.0 mi SW 15.0 mph 21.9 mph N/A   Clear
6:15 PM 80.6 °F 15.8 °F 9% 30.16 in 10.0 mi WSW 15.0 mph - N/A   Clear
6:55 PM 77.0 °F 19.4 °F 12% 30.16 in 10.0 mi SW 15.0 mph - N/A   Clear
7:15 PM 77.0 °F 19.4 °F 12% 30.17 in 10.0 mi SW 13.8 mph - N/A   Clear
7:35 PM 75.2 °F 19.4 °F 12% 30.17 in 10.0 mi SW 9.2 mph - N/A   Clear
7:55 PM 73.4 °F 19.4 °F 13% 30.17 in 10.0 mi SW 8.1 mph - N/A   Clear
8:15 PM 71.6 °F 19.4 °F 14% 30.18 in 10.0 mi SW 8.1 mph - N/A   Clear
8:35 PM 68.0 °F 19.4 °F 16% 30.18 in 10.0 mi SSW 6.9 mph - N/A   Clear
8:55 PM 66.2 °F 19.4 °F 17% 30.19 in 10.0 mi SSW 5.8 mph - N/A   Clear
9:15 PM 64.4 °F 19.4 °F 18% 30.20 in 10.0 mi South 5.8 mph - N/A   Clear
9:35 PM 64.4 °F 19.4 °F 18% 30.20 in 10.0 mi South 6.9 mph - N/A   Clear
9:55 PM 64.4 °F 19.4 °F 18% 30.20 in 10.0 mi South 8.1 mph - N/A   Clear
10:15 PM 62.6 °F 19.4 °F 19% 30.20 in 10.0 mi South 9.2 mph - N/A   Clear
10:35 PM 62.6 °F 19.4 °F 19% 30.20 in 10.0 mi South 8.1 mph - N/A   Clear
10:55 PM 62.6 °F 21.2 °F 20% 30.19 in 10.0 mi South 8.1 mph - N/A   Clear
11:15 PM 62.6 °F 21.2 °F 20% 30.19 in 10.0 mi SSW 9.2 mph - N/A   Clear
11:35 PM 60.8 °F 21.2 °F 22% 30.19 in 10.0 mi South 9.2 mph - N/A   Clear
11:55 PM 60.8 °F 21.2 °F 22% 30.19 in 10.0 mi South 10.4 mph - N/A   Clear